Pago Pago International (NSTU)

Aerodrome — Elev 32
American Samoa
S014.19.51.600 W170.42.37.800
Loading chart...

Current Weather

NSTU 190250Z 08008G10KT 12SM FEW018 SCT040 SCT180 30/25 A2981 RMK SLP095 8/801 T02960250 57012

Published 1 hours 19 minutes ago

Airport Activity

Loading chart...
Loading chart...

Standard ATC Positions

CallsignRadio Name / Freq / Voice Room / TypeFrequencyType
NZZO-TSN_FSS Auckland Radio (Tasman)
129.500
nzzo-tsn_fss
129.500
NZZO_FSS Auckland Radio
129.000
nzzo_fss
129.000
NSFA_CTR Faleolo Control
126.900
nsfa_ctr
126.900
NCRG_APP Rarotonga Tower
118.100
ncrg_app
118.100
NFTV_TWR Vavau Tower
118.100
nftv_twr
118.100
NIUE_TWR Niue Tower
118.100
niue_twr
118.100
UNICOM NZZO UNICOM
122.800
unicom_nzzo
122.800

Event ATC Positions

This airport has additional control positions that are designated for use only during major events.
These non-standard positions must not be staffed unless specifically activated by the VATNZ Airspace Director as part of an official VATNZ event.
At all other times, controllers should use the designated Standard ATC Positions.

CallsignRadio Name / Freq / Voice Room / TypeFrequencyType
NSTU_TWR Pago Pago Tower
122.900
nstu_twr
122.900
NSTU_TWR Pago Pago Tower
122.900
nstu_twr
122.900